createdAt,value
2023-05-14T00:00:15.378Z,14.6
2023-05-14T00:05:15.440Z,14.6
2023-05-14T00:10:15.420Z,14.6
2023-05-14T00:15:15.370Z,15.2
2023-05-14T00:20:15.504Z,15.2
2023-05-14T00:25:15.448Z,15
2023-05-14T00:30:15.420Z,15
2023-05-14T00:35:15.488Z,15.2
2023-05-14T00:40:15.443Z,15.2
2023-05-14T00:45:15.503Z,15.3
2023-05-14T00:50:15.430Z,15.2
2023-05-14T00:55:15.468Z,15.2
2023-05-14T01:00:15.463Z,15.2
2023-05-14T01:05:16.645Z,15.2
2023-05-14T01:10:15.433Z,15.4
2023-05-14T01:15:15.444Z,15.4
2023-05-14T01:20:15.448Z,15.4
2023-05-14T01:25:15.463Z,15.9
2023-05-14T01:30:15.432Z,16.2
2023-05-14T01:35:15.490Z,16.2
2023-05-14T01:40:15.415Z,16.5
2023-05-14T01:45:15.417Z,17.1
2023-05-14T01:50:15.446Z,16.8
2023-05-14T01:55:15.412Z,16.8
2023-05-14T02:00:15.426Z,16.8
2023-05-14T02:05:15.436Z,16.5
2023-05-14T02:10:15.430Z,15.2
2023-05-14T02:15:15.464Z,15.1
2023-05-14T02:20:15.522Z,14.8
2023-05-14T02:25:15.425Z,14.8
2023-05-14T02:30:15.410Z,13.2
2023-05-14T02:35:15.416Z,12.9
2023-05-14T02:40:15.423Z,12.9
2023-05-14T02:45:15.436Z,12.7
2023-05-14T02:50:15.490Z,12.7
2023-05-14T02:55:15.478Z,12.9
2023-05-14T03:00:15.423Z,13.7
2023-05-14T03:05:15.445Z,14.4
2023-05-14T03:10:15.468Z,14.4
2023-05-14T03:15:15.410Z,14.6
2023-05-14T03:20:15.432Z,14.6
2023-05-14T03:25:15.468Z,14.9
2023-05-14T03:30:15.447Z,14.9
2023-05-14T03:35:15.503Z,14.6
2023-05-14T03:40:15.674Z,14.1
2023-05-14T03:45:15.548Z,12.8
2023-05-14T03:50:15.556Z,12.5
2023-05-14T03:55:15.723Z,12.4
2023-05-14T04:00:15.485Z,12.4
2023-05-14T04:05:15.568Z,12.4
2023-05-14T04:10:15.485Z,12.4
2023-05-14T04:15:15.442Z,13.2
2023-05-14T04:20:15.537Z,13.3
2023-05-14T04:25:15.505Z,13.3
2023-05-14T04:30:15.454Z,13.3
2023-05-14T04:35:15.437Z,13.3
2023-05-14T04:40:15.476Z,13.3
2023-05-14T04:45:15.459Z,13.4
2023-05-14T04:50:15.528Z,13.7
2023-05-14T04:55:15.492Z,13.7
2023-05-14T05:00:15.454Z,14.4
2023-05-14T05:05:15.706Z,14.4
2023-05-14T05:10:15.623Z,15.2
2023-05-14T05:15:15.462Z,17.9
2023-05-14T05:20:15.487Z,17.9
2023-05-14T05:25:15.617Z,17
2023-05-14T05:30:15.603Z,17.5
2023-05-14T05:35:16.934Z,17.5
2023-05-14T05:40:15.613Z,17.5
2023-05-14T05:45:15.475Z,17.5
2023-05-14T05:50:15.489Z,17.1
2023-05-14T05:55:15.489Z,17.1
2023-05-14T06:00:15.437Z,17.1
2023-05-14T06:05:15.554Z,15.8
2023-05-14T06:10:15.524Z,15.8
2023-05-14T06:15:15.471Z,15.3
2023-05-14T06:20:15.481Z,15.1
2023-05-14T06:25:15.493Z,14.2
2023-05-14T06:30:15.482Z,13.5
2023-05-14T06:35:15.537Z,12.1
2023-05-14T06:40:15.504Z,11.6
2023-05-14T06:45:15.488Z,10.9
2023-05-14T06:50:15.496Z,10.5
2023-05-14T06:55:15.526Z,9.3
2023-05-14T07:00:15.465Z,8.3
2023-05-14T07:05:15.521Z,8
2023-05-14T07:10:15.646Z,7.3
2023-05-14T07:15:15.769Z,7
2023-05-14T07:20:15.591Z,6.8
2023-05-14T07:25:15.525Z,6.6
2023-05-14T07:30:15.542Z,6.6
2023-05-14T07:35:15.827Z,6.6
2023-05-14T07:40:15.505Z,6.3
2023-05-14T07:45:15.463Z,6.3
2023-05-14T07:50:15.544Z,6.3
2023-05-14T07:55:15.500Z,6.2
2023-05-14T08:00:15.455Z,6.2
2023-05-14T08:05:15.557Z,6.2
2023-05-14T08:10:15.506Z,6.1
2023-05-14T08:15:16.024Z,6.1
2023-05-14T08:20:15.522Z,6.1
2023-05-14T08:25:15.533Z,5.9
2023-05-14T08:30:15.520Z,5.9
2023-05-14T08:35:15.551Z,5.8
2023-05-14T08:40:15.527Z,5.7
2023-05-14T08:45:15.477Z,5.7
2023-05-14T08:50:15.623Z,5.2
2023-05-14T08:55:15.508Z,4.7
2023-05-14T09:00:15.538Z,4.6
2023-05-14T09:05:15.555Z,4.6
2023-05-14T09:10:15.535Z,4.5
2023-05-14T09:15:15.474Z,4.5
2023-05-14T09:20:15.669Z,4.5
2023-05-14T09:25:15.488Z,4.6
2023-05-14T09:30:15.496Z,4.7
2023-05-14T09:35:15.554Z,4.8
2023-05-14T09:40:15.539Z,4.7
2023-05-14T09:45:15.520Z,4.7
2023-05-14T09:50:15.560Z,4.5
2023-05-14T09:55:15.536Z,4.5
2023-05-14T10:00:15.926Z,4.4
2023-05-14T10:05:15.584Z,4.4
2023-05-14T10:10:15.525Z,4.4
2023-05-14T10:15:15.484Z,4.4
2023-05-14T10:20:15.556Z,4.4
2023-05-14T10:25:15.745Z,4.5
2023-05-14T10:30:15.484Z,4.5
2023-05-14T10:35:16.025Z,4.6
2023-05-14T10:40:15.848Z,4.7
2023-05-14T10:45:15.692Z,4.7
2023-05-14T10:50:15.604Z,4.9
2023-05-14T10:55:15.604Z,4.9
2023-05-14T11:00:15.492Z,4.9
2023-05-14T11:05:15.876Z,4.9
2023-05-14T11:10:15.546Z,4.6
2023-05-14T11:15:15.568Z,4.3
2023-05-14T11:20:15.518Z,4.3
2023-05-14T11:25:15.601Z,3.8
2023-05-14T11:30:15.488Z,3.4
2023-05-14T11:35:15.562Z,3.4
2023-05-14T11:40:15.596Z,3.4
2023-05-14T11:45:15.542Z,3.6
2023-05-14T11:50:16.867Z,3.4
2023-05-14T11:55:16.751Z,3.4
2023-05-14T12:00:15.847Z,3.5
2023-05-14T12:05:15.730Z,3.5
2023-05-14T12:10:15.707Z,3.5
2023-05-14T12:15:15.603Z,3.4
2023-05-14T12:20:15.565Z,3.4
2023-05-14T12:25:15.550Z,3.4
2023-05-14T12:30:22.186Z,3.3
2023-05-14T12:35:15.599Z,3.3
2023-05-14T12:40:15.567Z,3.3
2023-05-14T12:45:15.552Z,3
2023-05-14T12:50:15.564Z,2.9
2023-05-14T12:55:15.693Z,2.8
2023-05-14T13:00:16.537Z,2.9
2023-05-14T13:05:15.567Z,2.8
2023-05-14T13:10:15.615Z,2.9
2023-05-14T13:15:15.573Z,3
2023-05-14T13:20:16.768Z,3
2023-05-14T13:25:15.850Z,3
2023-05-14T13:30:17.995Z,3
2023-05-14T13:35:16.950Z,3
2023-05-14T13:40:17.030Z,3
2023-05-14T13:45:15.562Z,3
2023-05-14T13:50:15.589Z,3
2023-05-14T13:55:15.547Z,3
2023-05-14T14:00:15.530Z,3
2023-05-14T14:05:15.590Z,3
2023-05-14T14:10:15.612Z,3
2023-05-14T14:15:15.533Z,3
2023-05-14T14:20:15.629Z,3.1
2023-05-14T14:25:15.602Z,3.1
2023-05-14T14:30:15.732Z,3.1
2023-05-14T14:35:15.692Z,3.1
2023-05-14T14:40:15.618Z,3.4
2023-05-14T14:45:15.585Z,3.4
2023-05-14T14:50:15.712Z,3.2
2023-05-14T14:55:16.856Z,3.4
2023-05-14T15:00:16.563Z,3.4
2023-05-14T15:05:16.584Z,3.2
2023-05-14T15:10:16.618Z,3.2
2023-05-14T15:15:16.515Z,3.2
2023-05-14T15:20:16.620Z,3.4
2023-05-14T15:25:16.603Z,3.5
2023-05-14T15:30:16.552Z,3.5
2023-05-14T15:35:16.620Z,3.6
2023-05-14T15:40:16.826Z,3.6
2023-05-14T15:45:16.573Z,3.6
2023-05-14T15:50:16.632Z,3.6
2023-05-14T15:55:16.643Z,3.7
2023-05-14T16:00:16.600Z,3.8
2023-05-14T16:05:16.655Z,3.8
2023-05-14T16:10:16.683Z,3.8
2023-05-14T16:15:16.786Z,3.8
2023-05-14T16:20:16.619Z,3.8
2023-05-14T16:25:16.731Z,3.8
2023-05-14T16:30:16.880Z,3.8
2023-05-14T16:35:16.624Z,3.8
2023-05-14T16:40:16.604Z,3.8
2023-05-14T16:45:16.571Z,3.8
2023-05-14T16:50:16.589Z,3.7
2023-05-14T16:55:16.658Z,3.8
2023-05-14T17:00:16.590Z,3.9
2023-05-14T17:05:16.676Z,4
2023-05-14T17:10:16.604Z,4
2023-05-14T17:15:16.596Z,4
2023-05-14T17:20:19.634Z,4.1
2023-05-14T17:25:16.651Z,4.2
2023-05-14T17:30:16.627Z,4.3
2023-05-14T17:35:16.645Z,4.4
2023-05-14T17:40:16.677Z,4.4
2023-05-14T17:45:16.667Z,4.4
2023-05-14T17:50:16.644Z,4.3
2023-05-14T17:55:16.646Z,3.8
2023-05-14T18:00:16.591Z,3.8
2023-05-14T18:05:17.485Z,3.8
2023-05-14T18:10:16.600Z,3.7
2023-05-14T18:15:16.662Z,3.5
2023-05-14T18:20:16.680Z,3.5
2023-05-14T18:25:16.651Z,3.5
2023-05-14T18:30:16.632Z,3.6
2023-05-14T18:35:16.745Z,3.6
2023-05-14T18:40:19.700Z,3.5
2023-05-14T18:45:16.619Z,3.5
2023-05-14T18:50:16.676Z,3.5
2023-05-14T18:55:16.698Z,3.5
2023-05-14T19:00:16.916Z,3.3
2023-05-14T19:05:16.714Z,3.3
2023-05-14T19:10:16.648Z,3.2
2023-05-14T19:15:16.647Z,3.3
2023-05-14T19:20:16.654Z,3.3
2023-05-14T19:25:16.733Z,3.7
2023-05-14T19:30:16.691Z,4.8
2023-05-14T19:35:16.618Z,4.8
2023-05-14T19:40:16.674Z,4.9
2023-05-14T19:45:16.696Z,5
2023-05-14T19:50:16.672Z,5
2023-05-14T19:55:16.719Z,4.9
2023-05-14T20:00:16.659Z,4.9
2023-05-14T20:05:16.723Z,5
2023-05-14T20:10:16.704Z,5
2023-05-14T20:15:16.684Z,5
2023-05-14T20:20:16.773Z,9.4
2023-05-14T20:25:16.670Z,9.4
2023-05-14T20:30:16.655Z,9.4
2023-05-14T20:35:16.686Z,13.2
2023-05-14T20:40:16.735Z,12.8
2023-05-14T20:45:16.687Z,12.8
2023-05-14T20:50:16.713Z,8.5
2023-05-14T20:55:16.719Z,7
2023-05-14T21:00:16.752Z,7.2
2023-05-14T21:05:16.686Z,6.9
2023-05-14T21:10:16.663Z,6.6
2023-05-14T21:15:16.647Z,6.6
2023-05-14T21:20:16.765Z,6.6
2023-05-14T21:25:16.703Z,6.6
2023-05-14T21:30:16.672Z,6.5
2023-05-14T21:35:16.668Z,6.4
2023-05-14T21:40:16.718Z,6.4
2023-05-14T21:45:16.651Z,5.9
2023-05-14T21:50:16.708Z,5.8
2023-05-14T21:55:16.708Z,5.8
2023-05-14T22:00:16.652Z,5.8
2023-05-14T22:05:16.700Z,5.8
2023-05-14T22:10:16.703Z,5.8
2023-05-14T22:15:16.694Z,5.8
2023-05-14T22:20:16.726Z,5
2023-05-14T22:25:16.722Z,5
2023-05-14T22:30:16.699Z,4.9
2023-05-14T22:35:16.660Z,4.8
2023-05-14T22:40:16.758Z,4.8
2023-05-14T22:45:16.704Z,4.8
2023-05-14T22:50:16.700Z,4.8
2023-05-14T22:55:16.786Z,4.8
2023-05-14T23:00:16.680Z,4.8
2023-05-14T23:05:16.700Z,4.8
2023-05-14T23:10:16.732Z,5.1
2023-05-14T23:15:16.666Z,5.1
2023-05-14T23:20:16.770Z,5.2
2023-05-14T23:25:16.697Z,5.2
2023-05-14T23:30:16.673Z,5.4
2023-05-14T23:35:16.685Z,5.5
2023-05-14T23:40:16.736Z,5.7
2023-05-14T23:45:16.664Z,5.5
2023-05-14T23:50:16.767Z,5.9
2023-05-14T23:55:16.709Z,5.9
